createdAt,value
2023-02-15T00:01:51.667Z,0.31
2023-02-15T00:04:23.332Z,0.11
2023-02-15T00:06:51.437Z,0.21
2023-02-15T00:09:19.337Z,0.30
2023-02-15T00:11:51.207Z,0.31
2023-02-15T00:14:21.793Z,0.05
2023-02-15T00:16:51.854Z,0.17
2023-02-15T00:19:22.416Z,-0.03
2023-02-15T00:21:51.003Z,-0.09
2023-02-15T00:24:20.725Z,-0.18
2023-02-15T00:26:49.508Z,0.13
2023-02-15T00:29:19.763Z,0.26
2023-02-15T00:31:48.035Z,-0.02
2023-02-15T00:34:18.685Z,0.24
2023-02-15T00:36:48.412Z,0.14
2023-02-15T00:39:17.633Z,0.14
2023-02-15T00:41:46.207Z,0.10
2023-02-15T00:44:14.739Z,0.31
2023-02-15T00:46:42.882Z,0.24
2023-02-15T00:49:11.325Z,0.31
2023-02-15T00:51:40.496Z,0.34
2023-02-15T00:54:09.944Z,0.44
2023-02-15T00:56:37.852Z,0.39
2023-02-15T00:59:05.781Z,0.25
2023-02-15T01:01:34.328Z,0.34
2023-02-15T01:04:02.276Z,0.39
2023-02-15T01:06:30.212Z,0.29
2023-02-15T01:09:03.970Z,0.12
2023-02-15T01:11:33.260Z,0.05
2023-02-15T01:14:01.302Z,-0.35
2023-02-15T01:16:30.596Z,-0.28
2023-02-15T01:18:58.824Z,-0.07
2023-02-15T01:21:28.220Z,-0.14
2023-02-15T01:23:56.155Z,-0.03
2023-02-15T01:26:24.109Z,0.02
2023-02-15T01:28:53.487Z,-0.08
2023-02-15T01:31:23.033Z,0.08
2023-02-15T01:33:51.510Z,0.18
2023-02-15T01:36:19.471Z,0.20
2023-02-15T01:38:47.737Z,-0.04
2023-02-15T01:41:23.909Z,0.09
2023-02-15T01:43:55.568Z,0.12
2023-02-15T01:46:29.567Z,0.12
2023-02-15T01:49:03.450Z,0.19
2023-02-15T01:51:35.747Z,0.18
2023-02-15T01:54:08.000Z,0.13
2023-02-15T01:56:38.322Z,-0.10
2023-02-15T01:59:12.185Z,-0.09
2023-02-15T02:01:40.808Z,0.04
2023-02-15T02:04:15.611Z,0.13
2023-02-15T02:06:43.689Z,0.18
2023-02-15T02:09:11.851Z,0.03
2023-02-15T02:11:41.482Z,0.07
2023-02-15T02:14:10.925Z,0.06
2023-02-15T02:16:46.889Z,0.09
2023-02-15T02:19:57.423Z,0.15
2023-02-15T02:22:55.976Z,0.01
2023-02-15T02:26:17.335Z,0.10
2023-02-15T02:29:29.187Z,0.14
2023-02-15T02:32:29.618Z,0.08
2023-02-15T02:35:07.912Z,0.05
2023-02-15T02:37:43.770Z,0.05
2023-02-15T02:40:18.442Z,0.08
2023-02-15T02:42:51.873Z,-0.13
2023-02-15T02:45:27.482Z,-0.21
2023-02-15T02:48:00.513Z,-0.17
2023-02-15T02:50:32.576Z,-0.24
2023-02-15T02:53:01.426Z,-0.26
2023-02-15T02:55:33.727Z,-0.40
2023-02-15T02:58:07.052Z,-0.50
2023-02-15T03:00:39.826Z,-0.42
2023-02-15T03:03:13.064Z,-0.37
2023-02-15T03:05:46.616Z,-0.45
2023-02-15T03:08:22.662Z,-0.56
2023-02-15T03:10:53.494Z,-0.56
2023-02-15T03:13:22.069Z,-0.55
2023-02-15T03:16:09.945Z,-0.62
2023-02-15T03:18:42.540Z,-0.68
2023-02-15T03:21:23.259Z,-0.69
2023-02-15T03:23:56.935Z,-0.71
2023-02-15T03:26:25.758Z,-0.74
2023-02-15T03:28:57.833Z,-0.70
2023-02-15T03:31:30.815Z,-0.73
2023-02-15T03:34:02.393Z,-0.70
2023-02-15T03:36:39.780Z,-0.75
2023-02-15T03:39:20.854Z,-0.83
2023-02-15T03:41:57.461Z,-0.89
2023-02-15T03:44:30.552Z,-0.95
2023-02-15T03:47:06.260Z,-0.99
2023-02-15T03:49:42.824Z,-0.95
2023-02-15T03:52:15.223Z,-0.84
2023-02-15T03:54:47.929Z,-0.85
2023-02-15T03:57:38.895Z,-0.93
2023-02-15T04:00:32.590Z,-0.88
2023-02-15T04:03:12.164Z,-0.78
2023-02-15T04:05:40.675Z,-0.64
2023-02-15T04:08:10.012Z,-0.65
2023-02-15T04:10:57.162Z,-0.69
2023-02-15T04:13:26.960Z,-0.60
2023-02-15T04:16:04.731Z,-0.59
2023-02-15T04:18:51.546Z,-0.68
2023-02-15T04:21:36.862Z,-0.61
2023-02-15T04:24:24.077Z,-0.62
2023-02-15T04:26:53.818Z,-0.76
2023-02-15T04:29:22.611Z,-0.69
2023-02-15T04:31:51.039Z,-1.02
2023-02-15T04:34:19.077Z,-1.28
2023-02-15T04:36:47.177Z,-1.07
2023-02-15T04:39:17.643Z,-0.89
2023-02-15T04:41:46.383Z,-0.79
2023-02-15T04:44:14.327Z,-0.66
2023-02-15T04:46:42.210Z,-0.67
2023-02-15T04:49:10.906Z,-0.61
2023-02-15T04:51:38.837Z,-0.60
2023-02-15T04:54:06.846Z,-0.65
2023-02-15T04:56:38.713Z,-0.65
2023-02-15T04:59:06.744Z,-0.74
2023-02-15T05:01:34.632Z,-0.81
2023-02-15T05:04:02.591Z,-0.70
2023-02-15T05:06:30.815Z,-0.63
2023-02-15T05:09:00.166Z,-0.65
2023-02-15T05:11:28.575Z,-0.71
2023-02-15T05:13:57.875Z,-0.74
2023-02-15T05:16:26.594Z,-0.70
2023-02-15T05:18:54.520Z,-0.64
2023-02-15T05:21:22.731Z,-0.62
2023-02-15T05:23:50.646Z,-0.58
2023-02-15T05:26:37.974Z,-0.58
2023-02-15T05:29:07.708Z,-0.68
2023-02-15T05:31:36.798Z,-0.67
2023-02-15T05:34:05.262Z,-0.62
2023-02-15T05:36:33.197Z,-0.74
2023-02-15T05:39:01.236Z,-0.75
2023-02-15T05:41:29.209Z,-1.11
2023-02-15T05:43:57.930Z,-1.15
2023-02-15T05:46:27.270Z,-0.88
2023-02-15T05:48:55.202Z,-0.67
2023-02-15T05:51:23.116Z,-0.70
2023-02-15T05:53:51.035Z,-0.69
2023-02-15T05:56:18.965Z,-0.74
2023-02-15T05:58:46.861Z,-0.59
2023-02-15T06:01:16.484Z,-0.56
2023-02-15T06:03:46.144Z,-0.48
2023-02-15T06:06:14.403Z,-0.43
2023-02-15T06:08:42.611Z,-0.23
2023-02-15T06:11:10.580Z,-0.09
2023-02-15T06:13:39.211Z,-0.18
2023-02-15T06:16:07.763Z,-0.53
2023-02-15T06:18:35.851Z,-0.55
2023-02-15T06:21:05.406Z,-0.43
2023-02-15T06:23:33.313Z,-0.43
2023-02-15T06:26:01.573Z,-0.31
2023-02-15T06:28:29.674Z,-0.06
2023-02-15T06:30:57.693Z,0.22
2023-02-15T06:33:25.810Z,0.47
2023-02-15T06:35:53.793Z,0.55
2023-02-15T06:38:23.106Z,0.51
2023-02-15T06:40:51.034Z,0.52
2023-02-15T06:43:18.983Z,0.79
2023-02-15T06:45:47.237Z,0.79
2023-02-15T06:48:15.147Z,1.00
2023-02-15T06:50:43.043Z,1.11
2023-02-15T06:53:11.140Z,1.35
2023-02-15T06:55:40.428Z,1.36
2023-02-15T06:58:08.320Z,1.46
2023-02-15T07:00:36.236Z,1.84
2023-02-15T07:03:04.637Z,1.91
2023-02-15T07:05:35.814Z,1.98
2023-02-15T07:08:03.925Z,2.18
2023-02-15T07:10:31.960Z,2.32
2023-02-15T07:13:00.263Z,2.44
2023-02-15T07:15:28.187Z,2.52
2023-02-15T07:17:56.084Z,2.76
2023-02-15T07:20:25.896Z,2.87
2023-02-15T07:22:53.910Z,2.93
2023-02-15T07:25:21.985Z,3.14
2023-02-15T07:27:49.946Z,3.19
2023-02-15T07:30:19.502Z,3.43
2023-02-15T07:33:05.866Z,3.56
2023-02-15T07:35:33.992Z,3.72
2023-02-15T07:38:01.975Z,3.79
2023-02-15T07:40:29.893Z,3.89
2023-02-15T07:43:00.503Z,4.11
2023-02-15T07:45:29.939Z,4.11
2023-02-15T07:47:57.837Z,4.17
2023-02-15T07:50:25.732Z,4.34
2023-02-15T07:52:53.777Z,4.27
2023-02-15T07:55:21.737Z,4.19
2023-02-15T07:57:51.974Z,4.32
2023-02-15T08:00:24.495Z,4.37
2023-02-15T08:03:09.935Z,4.58
2023-02-15T08:05:38.051Z,4.68
2023-02-15T08:08:06.645Z,4.54
2023-02-15T08:11:03.571Z,4.71
2023-02-15T08:13:31.459Z,4.73
2023-02-15T08:15:59.747Z,4.69
2023-02-15T08:18:29.052Z,4.86
2023-02-15T08:20:56.941Z,4.94
2023-02-15T08:23:24.855Z,4.92
2023-02-15T08:25:52.760Z,5.00
2023-02-15T08:28:20.674Z,4.93
2023-02-15T08:30:48.609Z,5.00
2023-02-15T08:33:18.948Z,4.99
2023-02-15T08:35:48.335Z,5.24
2023-02-15T08:38:16.493Z,5.36
2023-02-15T08:40:44.392Z,5.53
2023-02-15T08:43:12.300Z,5.65
2023-02-15T08:45:40.239Z,5.81
2023-02-15T08:48:08.162Z,5.95
2023-02-15T08:50:36.056Z,6.05
2023-02-15T08:53:05.373Z,6.09
2023-02-15T08:55:33.280Z,6.18
2023-02-15T08:58:01.251Z,6.28
2023-02-15T09:00:29.427Z,6.40
2023-02-15T09:02:57.323Z,6.57
2023-02-15T09:05:25.324Z,6.63
2023-02-15T09:07:53.240Z,6.82
2023-02-15T09:10:22.826Z,6.81
2023-02-15T09:12:51.983Z,6.70
2023-02-15T09:15:19.866Z,6.99
2023-02-15T09:17:47.753Z,7.23
2023-02-15T09:20:15.716Z,7.31
2023-02-15T09:22:43.649Z,7.39
2023-02-15T09:25:11.767Z,7.26
2023-02-15T09:27:42.142Z,7.40
2023-02-15T09:30:10.823Z,7.46
2023-02-15T09:32:38.751Z,7.02
2023-02-15T09:35:07.325Z,6.86
2023-02-15T09:37:35.232Z,7.34
2023-02-15T09:40:03.615Z,7.35
2023-02-15T09:42:50.428Z,7.55
2023-02-15T09:45:51.272Z,7.62
2023-02-15T09:48:33.324Z,7.62
2023-02-15T09:51:23.256Z,7.88
2023-02-15T09:54:06.634Z,7.93
2023-02-15T09:56:40.847Z,8.08
2023-02-15T09:59:14.419Z,8.18
2023-02-15T10:01:55.680Z,7.99
2023-02-15T10:04:42.040Z,8.09
2023-02-15T10:07:29.614Z,7.97
2023-02-15T10:10:12.294Z,8.27
2023-02-15T10:13:00.073Z,8.54
2023-02-15T10:15:43.096Z,8.23
2023-02-15T10:18:35.529Z,8.29
2023-02-15T10:21:11.824Z,8.44
2023-02-15T10:23:53.784Z,8.46
2023-02-15T10:26:23.954Z,8.38
2023-02-15T10:28:53.800Z,8.21
2023-02-15T10:31:28.940Z,8.43
2023-02-15T10:34:17.018Z,8.63
2023-02-15T10:37:00.015Z,8.67
2023-02-15T10:39:34.541Z,8.83
2023-02-15T10:42:11.602Z,8.87
2023-02-15T10:44:52.538Z,8.82
2023-02-15T10:47:35.404Z,8.88
2023-02-15T10:50:16.089Z,8.86
2023-02-15T10:52:56.877Z,8.72
2023-02-15T10:55:38.585Z,8.56
2023-02-15T10:58:14.813Z,8.65
2023-02-15T11:00:47.508Z,8.37
2023-02-15T11:03:32.519Z,8.11
2023-02-15T11:06:07.051Z,8.26
2023-02-15T11:08:38.078Z,8.41
2023-02-15T11:11:10.074Z,8.60
2023-02-15T11:13:42.883Z,8.82
2023-02-15T11:16:18.740Z,8.98
2023-02-15T11:18:52.344Z,8.95
2023-02-15T11:21:24.350Z,8.94
2023-02-15T11:23:54.244Z,8.79
2023-02-15T11:26:28.991Z,8.73
2023-02-15T11:29:02.057Z,8.74
2023-02-15T11:31:43.536Z,8.84
2023-02-15T11:34:19.863Z,8.92
2023-02-15T11:36:50.808Z,9.06
2023-02-15T11:39:21.988Z,9.26
2023-02-15T11:41:54.935Z,8.66
2023-02-15T11:44:27.310Z,8.94
2023-02-15T11:46:55.264Z,9.29
2023-02-15T11:49:32.617Z,9.36
2023-02-15T11:52:03.152Z,9.42
2023-02-15T11:54:34.063Z,9.41
2023-02-15T11:57:12.602Z,9.36
2023-02-15T11:59:45.435Z,9.43
2023-02-15T12:02:18.920Z,9.52
2023-02-15T12:04:51.754Z,9.17
2023-02-15T12:07:26.642Z,8.97
2023-02-15T12:10:01.663Z,8.70
2023-02-15T12:12:32.310Z,8.35
2023-02-15T12:15:02.440Z,8.65
2023-02-15T12:17:33.506Z,8.92
2023-02-15T12:20:06.053Z,8.85
2023-02-15T12:22:37.260Z,8.61
2023-02-15T12:25:21.968Z,8.80
2023-02-15T12:27:50.540Z,8.88
2023-02-15T12:30:23.908Z,9.01
2023-02-15T12:32:55.822Z,9.04
2023-02-15T12:35:31.256Z,8.79
2023-02-15T12:38:05.165Z,9.06
2023-02-15T12:40:36.614Z,9.12
2023-02-15T12:43:09.542Z,8.96
2023-02-15T12:45:39.149Z,8.85
2023-02-15T12:48:18.382Z,8.99
2023-02-15T12:50:54.723Z,9.06
2023-02-15T12:53:25.018Z,8.93
2023-02-15T12:55:56.030Z,8.98
2023-02-15T12:58:26.548Z,8.65
2023-02-15T13:01:14.752Z,8.60
2023-02-15T13:03:58.941Z,8.78
2023-02-15T13:06:29.871Z,8.80
2023-02-15T13:09:00.814Z,8.89
2023-02-15T13:11:35.127Z,9.00
2023-02-15T13:14:05.870Z,9.00
2023-02-15T13:16:36.157Z,9.00
2023-02-15T13:19:08.178Z,8.92
2023-02-15T13:21:41.573Z,8.80
2023-02-15T13:24:19.968Z,8.86
2023-02-15T13:26:49.319Z,8.66
2023-02-15T13:29:23.013Z,8.69
2023-02-15T13:31:52.260Z,8.58
2023-02-15T13:34:25.792Z,8.61
2023-02-15T13:37:03.612Z,8.53
2023-02-15T13:39:41.741Z,8.57
2023-02-15T13:42:23.192Z,8.43
2023-02-15T13:45:04.627Z,8.26
2023-02-15T13:47:43.836Z,8.41
2023-02-15T13:50:35.884Z,8.43
2023-02-15T13:53:36.255Z,8.57
2023-02-15T13:56:13.695Z,8.57
2023-02-15T13:59:04.926Z,8.49
2023-02-15T14:01:41.501Z,8.37
2023-02-15T14:04:55.747Z,8.18
2023-02-15T14:07:35.736Z,8.20
2023-02-15T14:10:34.028Z,8.06
2023-02-15T14:13:26.817Z,7.90
2023-02-15T14:16:00.243Z,7.81
2023-02-15T14:18:38.413Z,7.60
2023-02-15T14:21:12.685Z,7.91
2023-02-15T14:23:44.394Z,7.77
2023-02-15T14:26:21.813Z,7.70
2023-02-15T14:29:00.091Z,7.69
2023-02-15T14:31:33.231Z,7.70
2023-02-15T14:34:01.320Z,7.69
2023-02-15T14:36:31.896Z,7.77
2023-02-15T14:39:32.601Z,7.60
2023-02-15T14:42:07.712Z,7.58
2023-02-15T14:44:40.275Z,7.56
2023-02-15T14:47:13.206Z,7.46
2023-02-15T14:49:42.095Z,7.46
2023-02-15T14:52:12.468Z,7.55
2023-02-15T14:55:00.733Z,7.54
2023-02-15T14:57:37.387Z,7.55
2023-02-15T15:00:35.718Z,7.35
2023-02-15T15:03:03.676Z,7.20
2023-02-15T15:05:37.119Z,7.17
2023-02-15T15:08:07.160Z,7.17
2023-02-15T15:10:41.660Z,7.23
2023-02-15T15:13:53.770Z,7.19
2023-02-15T15:16:49.026Z,7.05
2023-02-15T15:20:04.854Z,6.84
2023-02-15T15:22:34.033Z,6.81
2023-02-15T15:25:02.922Z,6.72
2023-02-15T15:28:00.846Z,6.85
2023-02-15T15:31:07.036Z,6.85
2023-02-15T15:34:18.262Z,6.74
2023-02-15T15:37:19.757Z,6.55
2023-02-15T15:40:43.031Z,6.28
2023-02-15T15:43:57.672Z,5.96
2023-02-15T15:46:58.193Z,5.41
2023-02-15T15:49:31.527Z,5.56
2023-02-15T15:52:03.103Z,5.55
2023-02-15T15:54:32.078Z,5.35
2023-02-15T15:57:03.359Z,5.32
2023-02-15T15:59:34.040Z,5.33
2023-02-15T16:02:09.571Z,4.99
2023-02-15T16:04:37.837Z,4.87
2023-02-15T16:07:26.418Z,4.64
2023-02-15T16:09:59.057Z,4.90
2023-02-15T16:12:28.323Z,5.04
2023-02-15T16:14:58.138Z,5.00
2023-02-15T16:17:32.671Z,4.64
2023-02-15T16:20:05.245Z,4.55
2023-02-15T16:22:35.104Z,4.74
2023-02-15T16:25:21.712Z,4.78
2023-02-15T16:27:50.420Z,4.61
2023-02-15T16:30:30.667Z,4.45
2023-02-15T16:33:08.991Z,4.55
2023-02-15T16:35:38.370Z,4.49
2023-02-15T16:38:06.979Z,4.33
2023-02-15T16:40:52.727Z,4.32
2023-02-15T16:43:26.646Z,4.11
2023-02-15T16:46:00.748Z,4.18
2023-02-15T16:48:30.078Z,4.19
2023-02-15T16:50:59.954Z,4.30
2023-02-15T16:53:29.629Z,4.31
2023-02-15T16:56:00.674Z,4.34
2023-02-15T16:58:32.356Z,4.31
2023-02-15T17:01:03.991Z,4.13
2023-02-15T17:03:33.490Z,4.01
2023-02-15T17:06:03.879Z,4.11
2023-02-15T17:08:34.966Z,4.23
2023-02-15T17:11:16.784Z,4.22
2023-02-15T17:14:16.505Z,4.21
2023-02-15T17:16:50.188Z,4.18
2023-02-15T17:19:25.872Z,4.10
2023-02-15T17:21:56.331Z,4.10
2023-02-15T17:24:35.594Z,4.04
2023-02-15T17:27:07.205Z,3.93
2023-02-15T17:29:39.567Z,3.87
2023-02-15T17:32:17.997Z,3.69
2023-02-15T17:34:58.494Z,3.70
2023-02-15T17:37:32.166Z,3.89
2023-02-15T17:40:02.155Z,3.87
2023-02-15T17:42:30.335Z,3.80
2023-02-15T17:44:58.235Z,3.73
2023-02-15T17:47:27.897Z,3.63
2023-02-15T17:49:57.432Z,3.57
2023-02-15T17:52:27.121Z,3.54
2023-02-15T17:55:17.628Z,3.39
2023-02-15T17:57:45.789Z,3.28
2023-02-15T18:00:33.851Z,3.27
2023-02-15T18:03:19.190Z,3.20
2023-02-15T18:06:06.019Z,3.19
2023-02-15T18:08:51.464Z,3.20
2023-02-15T18:11:40.619Z,3.21
2023-02-15T18:14:10.507Z,3.12
2023-02-15T18:16:41.736Z,3.13
2023-02-15T18:19:15.797Z,3.19
2023-02-15T18:21:45.402Z,3.16
2023-02-15T18:24:21.648Z,3.16
2023-02-15T18:26:49.833Z,3.11
2023-02-15T18:29:18.050Z,3.10
2023-02-15T18:31:49.148Z,3.11
2023-02-15T18:34:25.094Z,3.00
2023-02-15T18:36:54.885Z,2.99
2023-02-15T18:39:30.772Z,3.05
2023-02-15T18:41:58.963Z,3.01
2023-02-15T18:44:27.917Z,2.93
2023-02-15T18:46:55.846Z,2.89
2023-02-15T18:49:23.751Z,2.81
2023-02-15T18:51:51.831Z,2.77
2023-02-15T18:54:25.086Z,2.78
2023-02-15T18:56:56.145Z,2.68
2023-02-15T18:59:25.171Z,2.62
2023-02-15T19:01:54.152Z,2.58
2023-02-15T19:04:24.207Z,2.55
2023-02-15T19:06:53.788Z,2.50
2023-02-15T19:09:26.291Z,2.51
2023-02-15T19:11:57.425Z,2.49
2023-02-15T19:14:28.212Z,2.53
2023-02-15T19:16:56.518Z,2.51
2023-02-15T19:19:25.083Z,2.54
2023-02-15T19:21:53.553Z,2.45
2023-02-15T19:24:25.266Z,2.35
2023-02-15T19:26:53.531Z,2.41
2023-02-15T19:29:26.808Z,2.50
2023-02-15T19:31:54.978Z,2.46
2023-02-15T19:34:23.070Z,2.56
2023-02-15T19:36:54.283Z,2.53
2023-02-15T19:39:30.168Z,2.51
2023-02-15T19:41:58.064Z,2.46
2023-02-15T19:44:26.148Z,2.45
2023-02-15T19:46:54.205Z,2.42
2023-02-15T19:49:22.195Z,2.21
2023-02-15T19:51:50.464Z,1.88
2023-02-15T19:54:28.403Z,1.37
2023-02-15T19:56:58.293Z,1.77
2023-02-15T19:59:28.104Z,1.98
2023-02-15T20:01:57.115Z,2.00
2023-02-15T20:04:25.741Z,1.71
2023-02-15T20:06:56.989Z,1.55
2023-02-15T20:09:27.388Z,1.51
2023-02-15T20:11:56.008Z,1.80
2023-02-15T20:14:25.394Z,1.96
2023-02-15T20:16:53.364Z,1.99
2023-02-15T20:19:21.297Z,1.86
2023-02-15T20:21:54.568Z,1.94
2023-02-15T20:24:24.351Z,2.11
2023-02-15T20:26:52.306Z,2.17
2023-02-15T20:29:20.584Z,2.17
2023-02-15T20:31:50.128Z,2.11
2023-02-15T20:34:18.326Z,1.98
2023-02-15T20:36:46.286Z,1.92
2023-02-15T20:39:17.572Z,1.58
2023-02-15T20:41:48.312Z,1.81
2023-02-15T20:44:20.521Z,1.88
2023-02-15T20:46:51.632Z,1.98
2023-02-15T20:49:19.639Z,1.99
2023-02-15T20:51:48.138Z,1.51
2023-02-15T20:54:18.355Z,0.55
2023-02-15T20:56:46.657Z,0.88
2023-02-15T20:59:24.336Z,1.02
2023-02-15T21:01:57.809Z,1.12
2023-02-15T21:04:31.091Z,1.32
2023-02-15T21:06:59.248Z,1.53
2023-02-15T21:09:27.306Z,1.55
2023-02-15T21:11:57.711Z,1.60
2023-02-15T21:14:28.102Z,1.63
2023-02-15T21:16:57.413Z,1.79
2023-02-15T21:19:25.891Z,1.64
2023-02-15T21:21:54.771Z,1.60
2023-02-15T21:24:25.530Z,1.30
2023-02-15T21:26:54.708Z,1.25
2023-02-15T21:29:24.640Z,1.50
2023-02-15T21:31:53.255Z,1.60
2023-02-15T21:34:22.599Z,1.73
2023-02-15T21:36:51.719Z,1.83
2023-02-15T21:39:22.489Z,1.87
2023-02-15T21:42:09.305Z,1.77
2023-02-15T21:44:54.820Z,1.71
2023-02-15T21:47:41.185Z,1.75
2023-02-15T21:50:30.296Z,1.75
2023-02-15T21:52:59.197Z,1.87
2023-02-15T21:55:27.272Z,1.82
2023-02-15T21:57:55.183Z,1.84
2023-02-15T22:00:25.601Z,1.78
2023-02-15T22:02:55.349Z,1.89
2023-02-15T22:05:27.935Z,1.92
2023-02-15T22:07:57.331Z,1.87
2023-02-15T22:10:27.251Z,1.45
2023-02-15T22:12:56.392Z,1.34
2023-02-15T22:15:27.515Z,1.07
2023-02-15T22:17:55.424Z,1.35
2023-02-15T22:20:25.713Z,1.41
2023-02-15T22:22:54.416Z,1.28
2023-02-15T22:25:24.225Z,1.07
2023-02-15T22:27:54.216Z,0.97
2023-02-15T22:30:27.824Z,0.32
2023-02-15T22:32:56.422Z,0.51
2023-02-15T22:35:28.238Z,0.76
2023-02-15T22:37:56.570Z,0.79
2023-02-15T22:40:30.117Z,0.77
2023-02-15T22:43:00.851Z,0.87
2023-02-15T22:45:29.238Z,0.96
2023-02-15T22:47:59.821Z,0.87
2023-02-15T22:50:30.814Z,0.96
2023-02-15T22:53:01.067Z,1.09
2023-02-15T22:55:32.421Z,0.96
2023-02-15T22:58:00.714Z,0.95
2023-02-15T23:00:30.998Z,0.92
2023-02-15T23:02:59.089Z,0.84
2023-02-15T23:05:30.813Z,0.82
2023-02-15T23:07:59.025Z,1.01
2023-02-15T23:10:27.766Z,1.12
2023-02-15T23:13:15.100Z,1.10
2023-02-15T23:15:44.615Z,0.57
2023-02-15T23:18:19.122Z,0.83
2023-02-15T23:20:51.295Z,0.92
2023-02-15T23:23:21.707Z,1.07
2023-02-15T23:25:49.598Z,1.13
2023-02-15T23:28:24.391Z,1.08
2023-02-15T23:30:52.700Z,1.14
2023-02-15T23:33:22.494Z,1.14
2023-02-15T23:35:52.311Z,1.16
2023-02-15T23:38:23.142Z,1.07
2023-02-15T23:41:13.239Z,1.07
2023-02-15T23:43:43.893Z,1.02
2023-02-15T23:46:26.622Z,1.05
2023-02-15T23:48:55.449Z,1.10
2023-02-15T23:51:30.373Z,1.08
2023-02-15T23:53:58.352Z,1.13
2023-02-15T23:56:26.426Z,1.02
2023-02-15T23:58:54.382Z,1.03
